createdAt,value
2023-10-06T00:00:00.734Z,3.70
2023-10-06T00:01:00.774Z,3.70
2023-10-06T00:02:00.792Z,3.70
2023-10-06T00:03:01.302Z,3.70
2023-10-06T00:04:00.757Z,3.70
2023-10-06T00:05:00.770Z,3.70
2023-10-06T00:06:00.725Z,3.70
2023-10-06T00:07:00.729Z,3.70
2023-10-06T00:08:00.978Z,3.70
2023-10-06T00:09:00.729Z,3.70
2023-10-06T00:10:00.879Z,3.70
2023-10-06T00:11:00.792Z,3.70
2023-10-06T00:12:00.758Z,3.70
2023-10-06T00:13:00.750Z,3.70
2023-10-06T00:14:00.826Z,3.70
2023-10-06T00:15:00.744Z,3.70
2023-10-06T00:16:00.771Z,3.70
2023-10-06T00:17:00.739Z,3.70
2023-10-06T00:18:00.869Z,3.70
2023-10-06T00:19:00.730Z,3.70
2023-10-06T00:20:00.816Z,3.70
2023-10-06T00:21:00.740Z,3.70
2023-10-06T00:22:01.671Z,3.70
2023-10-06T00:23:00.787Z,3.70
2023-10-06T00:24:00.743Z,3.70
2023-10-06T00:25:01.104Z,3.70
2023-10-06T00:26:00.810Z,3.70
2023-10-06T00:27:00.772Z,3.70
2023-10-06T00:28:00.728Z,3.70
2023-10-06T00:29:00.817Z,3.70
2023-10-06T00:30:00.783Z,3.70
2023-10-06T00:31:00.729Z,3.70
2023-10-06T00:32:00.851Z,3.70
2023-10-06T00:33:00.776Z,3.70
2023-10-06T00:34:00.735Z,3.70
2023-10-06T00:35:00.834Z,3.70
2023-10-06T00:36:00.915Z,3.70
2023-10-06T00:37:00.740Z,3.70
2023-10-06T00:38:00.785Z,3.70
2023-10-06T00:39:00.739Z,3.70
2023-10-06T00:40:00.741Z,3.70
2023-10-06T00:41:00.857Z,3.70
2023-10-06T00:42:00.816Z,3.70
2023-10-06T00:43:00.720Z,3.70
2023-10-06T00:44:00.808Z,3.70
2023-10-06T00:45:00.748Z,3.70
2023-10-06T00:46:01.700Z,3.70
2023-10-06T00:47:00.960Z,3.70
2023-10-06T00:48:00.998Z,3.70
2023-10-06T00:49:00.754Z,3.70
2023-10-06T00:50:00.814Z,3.70
2023-10-06T00:51:01.119Z,3.70
2023-10-06T00:52:00.798Z,3.70
2023-10-06T00:53:00.814Z,3.70
2023-10-06T00:54:00.811Z,3.70
2023-10-06T00:55:01.465Z,3.70
2023-10-06T00:56:01.178Z,3.70
2023-10-06T00:57:00.843Z,3.70
2023-10-06T00:58:01.139Z,3.70
2023-10-06T00:59:00.760Z,3.70
2023-10-06T01:00:01.021Z,3.70
2023-10-06T01:01:01.359Z,3.70
2023-10-06T01:02:00.923Z,3.70
2023-10-06T01:03:00.860Z,3.70
2023-10-06T01:04:00.760Z,3.70
2023-10-06T01:05:00.814Z,3.70
2023-10-06T01:06:00.862Z,3.70
2023-10-06T01:07:00.843Z,3.70
2023-10-06T01:08:00.802Z,4.20
2023-10-06T01:09:04.251Z,4.20
2023-10-06T01:10:00.753Z,4.20
2023-10-06T01:11:01.312Z,4.20
2023-10-06T01:12:00.749Z,4.20
2023-10-06T01:13:01.088Z,4.20
2023-10-06T01:14:00.769Z,4.20
2023-10-06T01:15:00.763Z,4.20
2023-10-06T01:16:00.761Z,4.20
2023-10-06T01:17:01.086Z,4.20
2023-10-06T01:18:00.865Z,4.20
2023-10-06T01:19:01.372Z,4.20
2023-10-06T01:20:00.768Z,4.20
2023-10-06T01:21:00.964Z,4.20
2023-10-06T01:22:00.813Z,4.20
2023-10-06T01:23:01.026Z,4.20
2023-10-06T01:24:00.735Z,4.20
2023-10-06T01:25:00.738Z,4.20
2023-10-06T01:26:00.862Z,4.20
2023-10-06T01:27:02.050Z,4.20
2023-10-06T01:28:00.773Z,4.20
2023-10-06T01:29:00.765Z,4.20
2023-10-06T01:30:00.743Z,4.20
2023-10-06T01:31:00.834Z,4.20
2023-10-06T01:32:00.871Z,4.20
2023-10-06T01:33:00.805Z,4.20
2023-10-06T01:34:00.748Z,4.20
2023-10-06T01:35:00.827Z,4.20
2023-10-06T01:36:00.761Z,4.20
2023-10-06T01:37:00.933Z,4.20
2023-10-06T01:38:00.928Z,3.90
2023-10-06T01:39:00.737Z,3.90
2023-10-06T01:40:00.737Z,3.90
2023-10-06T01:41:00.772Z,3.90
2023-10-06T01:42:00.747Z,3.90
2023-10-06T01:43:00.761Z,3.90
2023-10-06T01:44:01.964Z,3.90
2023-10-06T01:45:00.755Z,3.90
2023-10-06T01:46:01.143Z,3.90
2023-10-06T01:47:01.090Z,3.90
2023-10-06T01:48:01.029Z,3.90
2023-10-06T01:49:00.738Z,3.90
2023-10-06T01:50:00.806Z,3.90
2023-10-06T01:51:00.748Z,3.90
2023-10-06T01:52:08.858Z,3.90
2023-10-06T01:53:00.780Z,3.90
2023-10-06T01:54:00.736Z,3.90
2023-10-06T01:55:00.822Z,3.90
2023-10-06T01:56:00.886Z,3.90
2023-10-06T01:57:02.327Z,3.90
2023-10-06T01:58:00.737Z,3.90
2023-10-06T01:59:02.045Z,3.90
2023-10-06T02:00:00.877Z,3.90
2023-10-06T02:01:00.779Z,3.90
2023-10-06T02:02:00.802Z,3.90
2023-10-06T02:03:01.347Z,3.90
2023-10-06T02:04:00.732Z,3.90
2023-10-06T02:05:00.818Z,3.90
2023-10-06T02:06:00.748Z,3.90
2023-10-06T02:07:00.772Z,3.90
2023-10-06T02:08:00.794Z,4.10
2023-10-06T02:09:00.851Z,4.10
2023-10-06T02:10:00.740Z,4.10
2023-10-06T02:11:00.774Z,4.10
2023-10-06T02:12:00.742Z,4.10
2023-10-06T02:13:00.738Z,4.10
2023-10-06T02:14:00.734Z,4.10
2023-10-06T02:15:00.734Z,4.10
2023-10-06T02:16:00.746Z,4.10
2023-10-06T02:17:00.882Z,4.10
2023-10-06T02:18:00.822Z,4.10
2023-10-06T02:19:00.742Z,4.10
2023-10-06T02:20:00.939Z,4.10
2023-10-06T02:21:03.095Z,4.10
2023-10-06T02:22:00.757Z,4.10
2023-10-06T02:23:00.830Z,4.10
2023-10-06T02:24:00.750Z,4.10
2023-10-06T02:25:00.735Z,4.10
2023-10-06T02:26:00.876Z,4.10
2023-10-06T02:27:00.765Z,4.10
2023-10-06T02:28:02.232Z,4.10
2023-10-06T02:29:00.755Z,4.10
2023-10-06T02:30:00.725Z,4.10
2023-10-06T02:31:00.845Z,4.10
2023-10-06T02:32:00.762Z,4.10
2023-10-06T02:33:00.925Z,4.10
2023-10-06T02:34:00.839Z,4.10
2023-10-06T02:35:00.898Z,4.10
2023-10-06T02:36:00.859Z,4.10
2023-10-06T02:37:01.522Z,4.10
2023-10-06T02:38:00.916Z,3.00
2023-10-06T02:39:00.729Z,3.00
2023-10-06T02:40:00.777Z,3.00
2023-10-06T02:41:00.763Z,3.00
2023-10-06T02:42:00.859Z,3.00
2023-10-06T02:43:00.738Z,3.00
2023-10-06T02:44:00.756Z,3.00
2023-10-06T02:45:00.748Z,3.00
2023-10-06T02:46:00.762Z,3.00
2023-10-06T02:47:00.834Z,3.00
2023-10-06T02:48:00.811Z,3.00
2023-10-06T02:49:00.726Z,3.00
2023-10-06T02:50:01.272Z,3.00
2023-10-06T02:51:00.725Z,3.00
2023-10-06T02:52:01.061Z,3.00
2023-10-06T02:53:00.752Z,3.00
2023-10-06T02:54:00.937Z,3.00
2023-10-06T02:55:00.746Z,3.00
2023-10-06T02:56:01.159Z,3.00
2023-10-06T02:57:00.724Z,3.00
2023-10-06T02:58:00.746Z,3.00
2023-10-06T02:59:00.744Z,3.00
2023-10-06T03:00:01.270Z,3.00
2023-10-06T03:01:00.756Z,3.00
2023-10-06T03:02:00.966Z,3.00
2023-10-06T03:03:00.830Z,3.00
2023-10-06T03:04:00.744Z,3.00
2023-10-06T03:05:00.762Z,3.00
2023-10-06T03:06:00.748Z,3.00
2023-10-06T03:07:00.756Z,3.00
2023-10-06T03:08:00.761Z,3.40
2023-10-06T03:09:00.727Z,3.40
2023-10-06T03:10:00.759Z,3.40
2023-10-06T03:11:01.330Z,3.40
2023-10-06T03:12:00.737Z,3.40
2023-10-06T03:13:00.745Z,3.40
2023-10-06T03:14:00.778Z,3.40
2023-10-06T03:15:00.735Z,3.40
2023-10-06T03:16:00.780Z,3.40
2023-10-06T03:17:00.836Z,3.40
2023-10-06T03:18:00.878Z,3.40
2023-10-06T03:19:00.759Z,3.40
2023-10-06T03:20:00.880Z,3.40
2023-10-06T03:21:00.740Z,3.40
2023-10-06T03:22:00.734Z,3.40
2023-10-06T03:23:00.757Z,3.40
2023-10-06T03:24:00.732Z,3.40
2023-10-06T03:25:00.745Z,3.40
2023-10-06T03:26:00.824Z,3.40
2023-10-06T03:27:00.916Z,3.40
2023-10-06T03:28:00.741Z,3.40
2023-10-06T03:29:01.363Z,3.40
2023-10-06T03:30:00.780Z,3.40
2023-10-06T03:31:00.804Z,3.40
2023-10-06T03:32:00.757Z,3.40
2023-10-06T03:33:00.970Z,3.40
2023-10-06T03:34:00.775Z,3.40
2023-10-06T03:35:01.188Z,3.40
2023-10-06T03:36:00.747Z,3.40
2023-10-06T03:37:00.731Z,3.40
2023-10-06T03:38:00.805Z,3.30
2023-10-06T03:39:00.744Z,3.30
2023-10-06T03:40:01.444Z,3.30
2023-10-06T03:41:00.904Z,3.30
2023-10-06T03:42:00.731Z,3.30
2023-10-06T03:43:00.745Z,3.30
2023-10-06T03:44:00.774Z,3.30
2023-10-06T03:45:00.745Z,3.30
2023-10-06T03:46:00.792Z,3.30
2023-10-06T03:47:00.755Z,3.30
2023-10-06T03:48:01.004Z,3.30
2023-10-06T03:49:00.750Z,3.30
2023-10-06T03:50:00.757Z,3.30
2023-10-06T03:51:00.771Z,3.30
2023-10-06T03:52:00.803Z,3.30
2023-10-06T03:53:00.790Z,3.30
2023-10-06T03:54:00.726Z,3.30
2023-10-06T03:55:00.749Z,3.30
2023-10-06T03:56:00.876Z,3.30
2023-10-06T03:57:00.749Z,3.30
2023-10-06T03:58:00.751Z,3.30
2023-10-06T03:59:00.782Z,3.30
2023-10-06T04:00:00.753Z,3.30
2023-10-06T04:01:00.730Z,3.30
2023-10-06T04:02:00.892Z,3.30
2023-10-06T04:03:00.824Z,3.30
2023-10-06T04:04:00.978Z,3.30
2023-10-06T04:05:00.796Z,3.30
2023-10-06T04:06:00.769Z,3.30
2023-10-06T04:07:00.749Z,3.30
2023-10-06T04:08:00.783Z,4.00
2023-10-06T04:09:01.103Z,4.00
2023-10-06T04:10:00.726Z,4.00
2023-10-06T04:11:00.831Z,4.00
2023-10-06T04:12:00.746Z,4.00
2023-10-06T04:13:00.923Z,4.00
2023-10-06T04:14:00.793Z,4.00
2023-10-06T04:15:00.726Z,4.00
2023-10-06T04:16:00.739Z,4.00
2023-10-06T04:17:00.742Z,4.00
2023-10-06T04:18:00.772Z,4.00
2023-10-06T04:19:00.746Z,4.00
2023-10-06T04:20:00.770Z,4.00
2023-10-06T04:21:00.766Z,4.00
2023-10-06T04:22:00.736Z,4.00
2023-10-06T04:23:00.787Z,4.00
2023-10-06T04:24:00.768Z,4.00
2023-10-06T04:25:00.728Z,4.00
2023-10-06T04:26:00.759Z,4.00
2023-10-06T04:27:00.915Z,4.00
2023-10-06T04:28:00.740Z,4.00
2023-10-06T04:29:00.859Z,4.00
2023-10-06T04:30:00.789Z,4.00
2023-10-06T04:31:00.776Z,4.00
2023-10-06T04:32:00.920Z,4.00
2023-10-06T04:33:00.831Z,4.00
2023-10-06T04:34:00.731Z,4.00
2023-10-06T04:35:00.805Z,4.00
2023-10-06T04:36:00.891Z,4.00
2023-10-06T04:37:00.730Z,4.00
2023-10-06T04:38:00.932Z,3.60
2023-10-06T04:39:00.740Z,3.60
2023-10-06T04:40:00.765Z,3.60
2023-10-06T04:41:00.750Z,3.60
2023-10-06T04:42:00.737Z,3.60
2023-10-06T04:43:00.733Z,3.60
2023-10-06T04:44:00.747Z,3.60
2023-10-06T04:45:01.082Z,3.60
2023-10-06T04:46:00.844Z,3.60
2023-10-06T04:47:00.774Z,3.60
2023-10-06T04:48:01.055Z,3.60
2023-10-06T04:49:01.036Z,3.60
2023-10-06T04:50:00.740Z,3.60
2023-10-06T04:51:00.730Z,3.60
2023-10-06T04:52:00.736Z,3.60
2023-10-06T04:53:00.834Z,3.60
2023-10-06T04:54:00.859Z,3.60
2023-10-06T04:55:00.731Z,3.60
2023-10-06T04:56:01.758Z,3.60
2023-10-06T04:57:00.773Z,3.60
2023-10-06T04:58:00.752Z,3.60
2023-10-06T04:59:00.781Z,3.60
2023-10-06T05:00:00.734Z,3.60
2023-10-06T05:01:00.768Z,3.60
2023-10-06T05:02:00.877Z,3.60
2023-10-06T05:03:00.996Z,3.60
2023-10-06T05:04:00.844Z,3.60
2023-10-06T05:05:00.945Z,3.60
2023-10-06T05:06:00.733Z,3.60
2023-10-06T05:07:00.738Z,3.60
2023-10-06T05:08:00.900Z,3.30
2023-10-06T05:09:00.729Z,3.30
2023-10-06T05:10:00.734Z,3.30
2023-10-06T05:11:00.797Z,3.30
2023-10-06T05:12:00.735Z,3.30
2023-10-06T05:13:00.775Z,3.30
2023-10-06T05:14:00.752Z,3.30
2023-10-06T05:15:00.743Z,3.30
2023-10-06T05:16:00.748Z,3.30
2023-10-06T05:17:00.762Z,3.30
2023-10-06T05:18:01.533Z,3.30
2023-10-06T05:19:00.753Z,3.30
2023-10-06T05:20:01.527Z,3.30
2023-10-06T05:21:00.771Z,3.30
2023-10-06T05:22:00.951Z,3.30
2023-10-06T05:23:02.730Z,3.30
2023-10-06T05:24:00.774Z,3.30
2023-10-06T05:25:00.730Z,3.30
2023-10-06T05:26:00.991Z,3.30
2023-10-06T05:27:00.728Z,3.30
2023-10-06T05:28:00.928Z,3.30
2023-10-06T05:29:00.779Z,3.30
2023-10-06T05:30:00.766Z,3.30
2023-10-06T05:31:00.731Z,3.30
2023-10-06T05:32:00.907Z,3.30
2023-10-06T05:33:00.764Z,3.30
2023-10-06T05:34:00.724Z,3.30
2023-10-06T05:35:00.746Z,3.30
2023-10-06T05:36:07.850Z,3.30
2023-10-06T05:37:00.774Z,3.30
2023-10-06T05:38:00.753Z,3.20
2023-10-06T05:39:00.828Z,3.20
2023-10-06T05:40:00.748Z,3.20
2023-10-06T05:41:00.741Z,3.20
2023-10-06T05:42:00.990Z,3.20
2023-10-06T05:43:01.864Z,3.20
2023-10-06T05:44:00.793Z,3.20
2023-10-06T05:45:00.750Z,3.20
2023-10-06T05:46:00.820Z,3.20
2023-10-06T05:47:00.812Z,3.20
2023-10-06T05:48:00.816Z,3.20
2023-10-06T05:49:00.779Z,3.20
2023-10-06T05:50:00.760Z,3.20
2023-10-06T05:51:00.830Z,3.20
2023-10-06T05:52:00.877Z,3.20
2023-10-06T05:53:00.922Z,3.20
2023-10-06T05:54:00.725Z,3.20
2023-10-06T05:55:00.741Z,3.20
2023-10-06T05:56:00.777Z,3.20
2023-10-06T05:57:00.751Z,3.20
2023-10-06T05:58:01.653Z,3.20
2023-10-06T05:59:00.801Z,3.20
2023-10-06T06:00:00.861Z,3.20
2023-10-06T06:01:00.801Z,3.20
2023-10-06T06:02:00.762Z,3.20
2023-10-06T06:03:01.282Z,3.20
2023-10-06T06:04:00.749Z,3.20
2023-10-06T06:05:00.758Z,3.20
2023-10-06T06:06:07.576Z,3.20
2023-10-06T06:07:01.251Z,3.20
2023-10-06T06:08:00.852Z,3.50
2023-10-06T06:09:00.745Z,3.50
2023-10-06T06:10:00.742Z,3.50
2023-10-06T06:11:00.935Z,3.50
2023-10-06T06:12:00.824Z,3.50
2023-10-06T06:13:00.843Z,3.50
2023-10-06T06:14:15.317Z,3.50
2023-10-06T06:15:00.743Z,3.50
2023-10-06T06:16:00.835Z,3.50
2023-10-06T06:17:00.792Z,3.50
2023-10-06T06:18:01.292Z,3.50
2023-10-06T06:19:00.740Z,3.50
2023-10-06T06:20:08.609Z,3.50
2023-10-06T06:21:01.231Z,3.50
2023-10-06T06:22:00.729Z,3.50
2023-10-06T06:23:00.849Z,3.50
2023-10-06T06:24:00.755Z,3.50
2023-10-06T06:25:00.769Z,3.50
2023-10-06T06:26:01.107Z,3.50
2023-10-06T06:27:00.880Z,3.50
2023-10-06T06:28:00.774Z,3.50
2023-10-06T06:29:00.761Z,3.50
2023-10-06T06:30:00.770Z,3.50
2023-10-06T06:31:00.731Z,3.50
2023-10-06T06:32:00.940Z,3.50
2023-10-06T06:33:00.768Z,3.50
2023-10-06T06:34:01.071Z,3.50
2023-10-06T06:35:00.838Z,3.50
2023-10-06T06:36:00.728Z,3.50
2023-10-06T06:37:00.732Z,3.50
2023-10-06T06:38:01.374Z,3.10
2023-10-06T06:39:00.735Z,3.10
2023-10-06T06:40:00.748Z,3.10
2023-10-06T06:41:01.252Z,3.10
2023-10-06T06:42:00.738Z,3.10
2023-10-06T06:43:00.755Z,3.10
2023-10-06T06:44:00.807Z,3.10
2023-10-06T06:45:00.766Z,3.10
2023-10-06T06:46:00.861Z,3.10
2023-10-06T06:47:00.758Z,3.10
2023-10-06T06:48:00.767Z,3.10
2023-10-06T06:49:00.746Z,3.10
2023-10-06T06:50:00.794Z,3.10
2023-10-06T06:51:00.737Z,3.10
2023-10-06T06:52:00.735Z,3.10
2023-10-06T06:53:00.775Z,3.10
2023-10-06T06:54:00.865Z,3.10
2023-10-06T06:55:01.139Z,3.10
2023-10-06T06:56:00.778Z,3.10
2023-10-06T06:57:00.726Z,3.10
2023-10-06T06:58:00.748Z,3.10
2023-10-06T06:59:01.152Z,3.10
2023-10-06T07:00:00.810Z,3.10
2023-10-06T07:01:00.777Z,3.10
2023-10-06T07:02:03.439Z,3.10
2023-10-06T07:03:01.408Z,3.10
2023-10-06T07:04:00.784Z,3.10
2023-10-06T07:05:00.802Z,3.10
2023-10-06T07:06:00.742Z,3.10
2023-10-06T07:07:00.953Z,3.10
2023-10-06T07:08:00.951Z,3.30
2023-10-06T07:09:01.109Z,3.30
2023-10-06T07:10:03.188Z,3.30
2023-10-06T07:11:06.427Z,3.30
2023-10-06T07:12:00.725Z,3.30
2023-10-06T07:13:00.745Z,3.30
2023-10-06T07:14:00.757Z,3.30
2023-10-06T07:15:00.786Z,3.30
2023-10-06T07:16:00.739Z,3.30
2023-10-06T07:17:00.768Z,3.30
2023-10-06T07:18:00.907Z,3.30
2023-10-06T07:19:00.724Z,3.30
2023-10-06T07:20:00.829Z,3.30
2023-10-06T07:21:06.390Z,3.30
2023-10-06T07:22:00.734Z,3.30
2023-10-06T07:23:00.814Z,3.30
2023-10-06T07:24:00.731Z,3.30
2023-10-06T07:25:00.735Z,3.30
2023-10-06T07:26:00.795Z,3.30
2023-10-06T07:27:00.728Z,3.30
2023-10-06T07:28:00.904Z,3.30
2023-10-06T07:29:00.825Z,3.30
2023-10-06T07:30:00.732Z,3.30
2023-10-06T07:31:00.740Z,3.30
2023-10-06T07:32:00.830Z,3.30
2023-10-06T07:33:01.611Z,3.30
2023-10-06T07:34:00.728Z,3.30
2023-10-06T07:35:00.846Z,3.30
2023-10-06T07:36:00.764Z,3.30
2023-10-06T07:37:00.732Z,3.30
2023-10-06T07:38:00.770Z,3.60
2023-10-06T07:39:00.814Z,3.60
2023-10-06T07:40:02.423Z,3.60
2023-10-06T07:41:00.981Z,3.60
2023-10-06T07:42:00.733Z,3.60
2023-10-06T07:43:00.761Z,3.60
2023-10-06T07:44:00.769Z,3.60
2023-10-06T07:45:00.831Z,3.60
2023-10-06T07:46:01.776Z,3.60
2023-10-06T07:47:00.747Z,3.60
2023-10-06T07:48:00.756Z,3.60
2023-10-06T07:49:00.745Z,3.60
2023-10-06T07:50:00.807Z,3.60
2023-10-06T07:51:04.253Z,3.60
2023-10-06T07:52:00.731Z,3.60
2023-10-06T07:53:00.850Z,3.60
2023-10-06T07:54:00.723Z,3.60
2023-10-06T07:55:00.720Z,3.60
2023-10-06T07:56:02.176Z,3.60
2023-10-06T07:57:00.739Z,3.60
2023-10-06T07:58:00.762Z,3.60
2023-10-06T07:59:00.743Z,3.60
2023-10-06T08:00:00.839Z,3.60
2023-10-06T08:01:00.752Z,3.60
2023-10-06T08:02:00.788Z,3.60
2023-10-06T08:03:01.201Z,3.60
2023-10-06T08:04:00.735Z,3.60
2023-10-06T08:05:00.790Z,3.60
2023-10-06T08:06:00.809Z,3.60
2023-10-06T08:07:00.732Z,3.60
2023-10-06T08:08:00.867Z,3.60
2023-10-06T08:09:00.836Z,3.60
2023-10-06T08:10:00.759Z,3.60
2023-10-06T08:11:01.385Z,3.60
2023-10-06T08:12:00.762Z,3.60
2023-10-06T08:13:00.739Z,3.60
2023-10-06T08:14:00.770Z,3.60
2023-10-06T08:15:01.161Z,3.60
2023-10-06T08:16:01.026Z,3.60
2023-10-06T08:17:00.822Z,3.60
2023-10-06T08:18:00.945Z,3.60
2023-10-06T08:19:00.731Z,3.60
2023-10-06T08:20:00.903Z,3.60
2023-10-06T08:21:00.759Z,3.60
2023-10-06T08:22:03.165Z,3.60
2023-10-06T08:23:00.756Z,3.60
2023-10-06T08:24:00.742Z,3.60
2023-10-06T08:25:00.912Z,3.60
2023-10-06T08:26:01.676Z,3.60
2023-10-06T08:27:00.731Z,3.60
2023-10-06T08:28:02.484Z,3.60
2023-10-06T08:29:00.824Z,3.60
2023-10-06T08:30:00.763Z,3.60
2023-10-06T08:31:00.757Z,3.60
2023-10-06T08:32:00.776Z,3.60
2023-10-06T08:33:00.828Z,3.60
2023-10-06T08:34:03.307Z,3.60
2023-10-06T08:35:00.777Z,3.60
2023-10-06T08:36:00.763Z,3.60
2023-10-06T08:37:00.753Z,3.60
2023-10-06T08:38:00.759Z,3.60
2023-10-06T08:39:00.787Z,3.60
2023-10-06T08:40:03.378Z,3.60
2023-10-06T08:41:01.516Z,3.60
2023-10-06T08:42:01.047Z,3.60
2023-10-06T08:43:00.732Z,3.60
2023-10-06T08:44:02.556Z,3.60
2023-10-06T08:45:01.180Z,3.60
2023-10-06T08:46:01.688Z,3.60
2023-10-06T08:47:12.539Z,3.60
2023-10-06T08:48:03.365Z,3.60
2023-10-06T08:49:00.927Z,3.60
2023-10-06T08:50:00.770Z,3.60
2023-10-06T08:51:04.338Z,3.60
2023-10-06T08:52:03.030Z,3.60
2023-10-06T08:53:01.426Z,3.60
2023-10-06T08:54:01.480Z,3.60
2023-10-06T08:55:01.458Z,3.60
2023-10-06T08:56:00.899Z,3.60
2023-10-06T08:57:00.738Z,3.60
2023-10-06T08:58:04.043Z,3.60
2023-10-06T08:59:00.797Z,3.60
2023-10-06T09:00:00.743Z,3.60
2023-10-06T09:01:00.773Z,3.60
2023-10-06T09:02:00.855Z,3.60
2023-10-06T09:03:00.894Z,3.60
2023-10-06T09:04:01.538Z,3.60
2023-10-06T09:05:00.866Z,3.60
2023-10-06T09:06:00.739Z,3.60
2023-10-06T09:07:09.384Z,3.60
2023-10-06T09:08:02.262Z,3.40
2023-10-06T09:09:00.746Z,3.40
2023-10-06T09:10:14.655Z,3.40
2023-10-06T09:11:00.797Z,3.40
2023-10-06T09:12:00.789Z,3.40
2023-10-06T09:13:04.812Z,3.40
2023-10-06T09:14:08.110Z,3.40
2023-10-06T09:15:00.786Z,3.40
2023-10-06T09:16:02.185Z,3.40
2023-10-06T09:17:00.750Z,3.40
2023-10-06T09:18:01.790Z,3.40
2023-10-06T09:19:00.764Z,3.40
2023-10-06T09:20:00.801Z,3.40
2023-10-06T09:21:16.876Z,3.40
2023-10-06T09:22:02.685Z,3.40
2023-10-06T09:23:00.764Z,3.40
2023-10-06T09:24:12.998Z,3.40
2023-10-06T09:25:00.931Z,3.40
2023-10-06T09:26:01.970Z,3.40
2023-10-06T09:27:17.673Z,3.40
2023-10-06T09:28:01.410Z,3.40
2023-10-06T09:29:00.763Z,3.40
2023-10-06T09:30:01.829Z,3.40
2023-10-06T09:31:02.019Z,3.40
2023-10-06T09:32:00.797Z,3.40
2023-10-06T09:33:01.302Z,3.40
2023-10-06T09:34:00.928Z,3.40
2023-10-06T09:35:17.272Z,3.40
2023-10-06T09:36:01.479Z,3.40
2023-10-06T09:37:16.372Z,3.40
2023-10-06T09:38:09.321Z,3.50
2023-10-06T09:39:01.225Z,3.50
2023-10-06T09:40:00.725Z,3.50
2023-10-06T09:41:00.773Z,3.50
2023-10-06T09:42:00.940Z,3.50
2023-10-06T09:43:02.411Z,3.50
2023-10-06T09:44:04.339Z,3.50
2023-10-06T09:45:05.797Z,3.50
2023-10-06T09:46:04.058Z,3.50
2023-10-06T09:47:01.933Z,3.50
2023-10-06T09:48:02.634Z,3.50
2023-10-06T09:49:03.620Z,3.50
2023-10-06T09:50:01.651Z,3.50
2023-10-06T09:51:03.895Z,3.50
2023-10-06T09:52:00.839Z,3.50
2023-10-06T09:53:02.172Z,3.50
2023-10-06T09:54:01.564Z,3.50
2023-10-06T09:55:01.519Z,3.50
2023-10-06T09:56:03.462Z,3.50
2023-10-06T09:57:01.736Z,3.50
2023-10-06T09:58:02.260Z,3.50
2023-10-06T09:59:01.089Z,3.50
2023-10-06T10:00:00.960Z,3.50
2023-10-06T10:01:01.367Z,3.50
2023-10-06T10:02:03.534Z,3.50
2023-10-06T10:03:02.325Z,3.50
2023-10-06T10:04:01.554Z,3.50
2023-10-06T10:05:02.863Z,3.50
2023-10-06T10:06:00.986Z,3.50
2023-10-06T10:07:01.200Z,3.50
2023-10-06T10:08:02.535Z,3.00
2023-10-06T10:09:00.730Z,3.00
2023-10-06T10:10:01.064Z,3.00
2023-10-06T10:11:03.013Z,3.00
2023-10-06T10:12:30.872Z,3.00
2023-10-06T10:13:11.093Z,3.00
2023-10-06T10:14:08.393Z,3.00
2023-10-06T10:15:22.597Z,3.00
2023-10-06T10:16:30.871Z,3.00
2023-10-06T10:17:10.758Z,3.00
2023-10-06T10:18:05.922Z,3.00
2023-10-06T10:19:03.346Z,3.00
2023-10-06T10:20:03.858Z,3.00
2023-10-06T10:21:01.521Z,3.00
2023-10-06T10:22:01.009Z,3.00
2023-10-06T10:23:01.284Z,3.00
2023-10-06T10:24:31.964Z,3.00
2023-10-06T10:25:23.369Z,3.00
2023-10-06T10:26:12.593Z,3.00
2023-10-06T10:27:09.963Z,3.00
2023-10-06T10:28:17.283Z,3.00
2023-10-06T10:29:16.397Z,3.00
2023-10-06T10:30:07.117Z,3.00
2023-10-06T10:31:00.882Z,3.00
2023-10-06T10:32:10.433Z,3.00
2023-10-06T10:33:06.116Z,3.00
2023-10-06T10:34:11.238Z,3.00
2023-10-06T10:35:08.945Z,3.00
2023-10-06T10:36:16.275Z,3.00
2023-10-06T10:37:01.643Z,3.00
2023-10-06T10:38:04.923Z,3.20
2023-10-06T10:39:06.901Z,3.20
2023-10-06T10:40:00.762Z,3.20
2023-10-06T10:41:00.803Z,3.20
2023-10-06T10:42:00.749Z,3.20
2023-10-06T10:43:04.980Z,3.20
2023-10-06T10:44:18.426Z,3.20
2023-10-06T10:45:30.862Z,3.20
2023-10-06T10:46:03.808Z,3.20
2023-10-06T10:47:00.778Z,3.20
2023-10-06T10:48:08.358Z,3.20
2023-10-06T10:49:00.748Z,3.20
2023-10-06T10:50:03.017Z,3.20
2023-10-06T10:51:01.440Z,3.20
2023-10-06T10:52:01.717Z,3.20
2023-10-06T10:53:01.441Z,3.20
2023-10-06T10:54:00.780Z,3.20
2023-10-06T10:55:00.804Z,3.20
2023-10-06T10:56:03.545Z,3.20
2023-10-06T10:57:08.826Z,3.20
2023-10-06T10:58:00.740Z,3.20
2023-10-06T10:59:00.810Z,3.20
2023-10-06T11:00:00.747Z,3.20
2023-10-06T11:01:31.233Z,3.20
2023-10-06T11:02:05.151Z,3.20
2023-10-06T11:03:01.677Z,3.20
2023-10-06T11:04:19.247Z,3.20
2023-10-06T11:05:01.969Z,3.20
2023-10-06T11:06:01.009Z,3.20
2023-10-06T11:07:09.211Z,3.20
2023-10-06T11:09:00.809Z,3.00
2023-10-06T11:10:01.238Z,3.00
2023-10-06T11:11:00.827Z,3.00
2023-10-06T11:12:20.966Z,3.00
2023-10-06T11:13:16.408Z,3.00
2023-10-06T11:14:04.081Z,3.00
2023-10-06T11:15:00.773Z,3.00
2023-10-06T11:16:04.363Z,3.00
2023-10-06T11:17:00.799Z,3.00
2023-10-06T11:18:00.789Z,3.00
2023-10-06T11:19:01.193Z,3.00
2023-10-06T11:20:05.087Z,3.00
2023-10-06T11:21:00.736Z,3.00
2023-10-06T11:22:08.558Z,3.00
2023-10-06T11:23:01.044Z,3.00
2023-10-06T11:24:00.726Z,3.00
2023-10-06T11:25:02.605Z,3.00
2023-10-06T11:26:03.498Z,3.00
2023-10-06T11:27:17.017Z,3.00
2023-10-06T11:28:02.903Z,3.00
2023-10-06T11:29:00.872Z,3.00
2023-10-06T11:30:07.264Z,3.00
2023-10-06T11:31:07.877Z,3.00
2023-10-06T11:32:02.423Z,3.00
2023-10-06T11:33:01.687Z,3.00
2023-10-06T11:34:01.561Z,3.00
2023-10-06T11:35:00.762Z,3.00
2023-10-06T11:36:00.716Z,3.00
2023-10-06T11:37:00.819Z,3.00
2023-10-06T11:38:09.506Z,3.20
2023-10-06T11:39:00.779Z,3.20
2023-10-06T11:40:00.810Z,3.20
2023-10-06T11:41:00.825Z,3.20
2023-10-06T11:42:30.862Z,3.20
2023-10-06T11:43:16.785Z,3.20
2023-10-06T11:44:01.594Z,3.20
2023-10-06T11:45:01.211Z,3.20
2023-10-06T11:46:01.007Z,3.20
2023-10-06T11:47:00.866Z,3.20
2023-10-06T11:48:00.835Z,3.20
2023-10-06T11:49:08.117Z,3.20
2023-10-06T11:50:02.401Z,3.20
2023-10-06T11:51:01.414Z,3.20
2023-10-06T11:52:00.920Z,3.20
2023-10-06T11:53:00.975Z,3.20
2023-10-06T11:54:00.816Z,3.20
2023-10-06T11:55:00.789Z,3.20
2023-10-06T11:56:04.555Z,3.20
2023-10-06T11:57:00.749Z,3.20
2023-10-06T11:58:02.048Z,3.20
2023-10-06T11:59:00.813Z,3.20
2023-10-06T12:00:00.734Z,3.20
2023-10-06T12:01:00.784Z,3.20
2023-10-06T12:02:07.794Z,3.20
2023-10-06T12:03:00.779Z,3.20
2023-10-06T12:04:00.919Z,3.20
2023-10-06T12:05:08.602Z,3.20
2023-10-06T12:06:00.825Z,3.20
2023-10-06T12:07:00.784Z,3.20
2023-10-06T12:08:04.547Z,3.50
2023-10-06T12:09:00.761Z,3.50
2023-10-06T12:10:01.500Z,3.50
2023-10-06T12:11:00.807Z,3.50
2023-10-06T12:12:01.002Z,3.50
2023-10-06T12:13:00.753Z,3.50
2023-10-06T12:14:01.803Z,3.50
2023-10-06T12:15:00.727Z,3.50
2023-10-06T12:16:10.115Z,3.50
2023-10-06T12:17:00.813Z,3.50
2023-10-06T12:18:00.789Z,3.50
2023-10-06T12:19:00.730Z,3.50
2023-10-06T12:20:03.449Z,3.50
2023-10-06T12:21:00.731Z,3.50
2023-10-06T12:22:00.971Z,3.50
2023-10-06T12:23:00.926Z,3.50
2023-10-06T12:24:00.730Z,3.50
2023-10-06T12:25:00.779Z,3.50
2023-10-06T12:26:01.213Z,3.50
2023-10-06T12:27:00.734Z,3.50
2023-10-06T12:28:00.744Z,3.50
2023-10-06T12:29:00.800Z,3.50
2023-10-06T12:30:00.729Z,3.50
2023-10-06T12:31:00.799Z,3.50
2023-10-06T12:32:03.013Z,3.50
2023-10-06T12:33:00.786Z,3.50
2023-10-06T12:34:00.792Z,3.50
2023-10-06T12:35:02.526Z,3.50
2023-10-06T12:36:00.743Z,3.50
2023-10-06T12:37:00.732Z,3.50
2023-10-06T12:38:03.040Z,2.60
2023-10-06T12:39:00.824Z,2.60
2023-10-06T12:40:01.303Z,2.60
2023-10-06T12:41:00.794Z,2.60
2023-10-06T12:42:01.208Z,2.60
2023-10-06T12:43:00.755Z,2.60
2023-10-06T12:44:03.961Z,2.60
2023-10-06T12:45:00.729Z,2.60
2023-10-06T12:46:00.748Z,2.60
2023-10-06T12:47:00.746Z,2.60
2023-10-06T12:48:00.786Z,2.60
2023-10-06T12:49:00.746Z,2.60
2023-10-06T12:50:00.824Z,2.60
2023-10-06T12:51:00.740Z,2.60
2023-10-06T12:52:00.720Z,2.60
2023-10-06T12:53:00.763Z,2.60
2023-10-06T12:54:00.739Z,2.60
2023-10-06T12:55:01.195Z,2.60
2023-10-06T12:56:00.796Z,2.60
2023-10-06T12:57:00.735Z,2.60
2023-10-06T12:58:00.764Z,2.60
2023-10-06T12:59:00.819Z,2.60
2023-10-06T13:00:04.203Z,2.60
2023-10-06T13:01:00.808Z,2.60
2023-10-06T13:02:01.000Z,2.60
2023-10-06T13:03:00.869Z,2.60
2023-10-06T13:04:00.951Z,2.60
2023-10-06T13:05:03.114Z,2.60
2023-10-06T13:06:02.899Z,2.60
2023-10-06T13:07:00.837Z,2.60
2023-10-06T13:08:00.768Z,3.60
2023-10-06T13:09:01.207Z,3.60
2023-10-06T13:10:00.829Z,3.60
2023-10-06T13:11:00.917Z,3.60
2023-10-06T13:12:02.934Z,3.60
2023-10-06T13:13:00.741Z,3.60
2023-10-06T13:14:00.809Z,3.60
2023-10-06T13:15:00.848Z,3.60
2023-10-06T13:16:01.058Z,3.60
2023-10-06T13:17:00.771Z,3.60
2023-10-06T13:18:00.765Z,3.60
2023-10-06T13:19:00.736Z,3.60